Terminal Aerodrome Forecast
Issued by NWS Medford, OR

Home | Current Version | Previous Version | Text Only | Print | Product List | Glossary On
Versions: 1 2 3 4 5 6 7 8 9 10 11 12 13 14 15 16 17 18 19
000
FTUS46 KMFR 230538
TAFMFR
TAF
KMFR 230538Z 2306/2406 VRB03KT P6SM SCT035 BKN050
     FM230900 00000KT P6SM FEW008 BKN025
     FM231600 04003KT P6SM BKN080 BKN120 BKN200
     FM232300 20010KT P6SM BKN050 OVC080=

USA.gov is the U.S. government's official web portal to all federal, state and local government web resources and services.